sensor_id;sensor_type;location;lat;lon;timestamp;P1;durP1;ratioP1;P2;durP2;ratioP2
56481;SDS011;42384;45.186;19.958;2022-07-23T00:02:09;7.97;;;2.65;;
56481;SDS011;42384;45.186;19.958;2022-07-23T00:04:35;5.60;;;2.97;;
56481;SDS011;42384;45.186;19.958;2022-07-23T00:07:01;6.20;;;2.75;;
56481;SDS011;42384;45.186;19.958;2022-07-23T00:09:27;10.40;;;3.08;;
56481;SDS011;42384;45.186;19.958;2022-07-23T00:11:56;6.82;;;3.38;;
56481;SDS011;42384;45.186;19.958;2022-07-23T00:16:48;13.15;;;5.15;;
56481;SDS011;42384;45.186;19.958;2022-07-23T00:19:15;8.90;;;2.35;;
56481;SDS011;42384;45.186;19.958;2022-07-23T00:21:41;9.73;;;3.13;;
56481;SDS011;42384;45.186;19.958;2022-07-23T00:26:33;8.02;;;2.50;;
56481;SDS011;42384;45.186;19.958;2022-07-23T00:29:00;16.02;;;3.17;;
56481;SDS011;42384;45.186;19.958;2022-07-23T00:31:26;10.48;;;2.92;;
56481;SDS011;42384;45.186;19.958;2022-07-23T00:33:52;14.90;;;3.22;;
56481;SDS011;42384;45.186;19.958;2022-07-23T00:36:22;15.60;;;4.28;;
56481;SDS011;42384;45.186;19.958;2022-07-23T00:38:49;21.38;;;11.23;;
56481;SDS011;42384;45.186;19.958;2022-07-23T00:43:41;23.35;;;8.75;;
56481;SDS011;42384;45.186;19.958;2022-07-23T00:46:07;12.25;;;6.00;;
56481;SDS011;42384;45.186;19.958;2022-07-23T00:48:34;14.75;;;7.70;;
56481;SDS011;42384;45.186;19.958;2022-07-23T00:53:26;9.93;;;5.07;;
56481;SDS011;42384;45.186;19.958;2022-07-23T00:55:53;11.40;;;5.60;;
56481;SDS011;42384;45.186;19.958;2022-07-23T00:58:19;8.85;;;5.10;;
56481;SDS011;42384;45.186;19.958;2022-07-23T01:00:46;11.38;;;5.57;;
56481;SDS011;42384;45.186;19.958;2022-07-23T01:03:12;9.30;;;4.50;;
56481;SDS011;42384;45.186;19.958;2022-07-23T01:05:38;9.80;;;3.80;;
56481;SDS011;42384;45.186;19.958;2022-07-23T01:08:05;10.02;;;3.47;;
56481;SDS011;42384;45.186;19.958;2022-07-23T01:10:32;8.65;;;3.00;;
56481;SDS011;42384;45.186;19.958;2022-07-23T01:15:25;4.78;;;2.63;;
56481;SDS011;42384;45.186;19.958;2022-07-23T01:17:51;8.07;;;3.10;;
56481;SDS011;42384;45.186;19.958;2022-07-23T01:22:44;8.70;;;2.90;;
56481;SDS011;42384;45.186;19.958;2022-07-23T01:25:10;5.20;;;2.88;;
56481;SDS011;42384;45.186;19.958;2022-07-23T01:27:36;8.00;;;2.88;;
56481;SDS011;42384;45.186;19.958;2022-07-23T01:30:03;5.60;;;2.70;;
56481;SDS011;42384;45.186;19.958;2022-07-23T01:32:29;5.70;;;3.45;;
56481;SDS011;42384;45.186;19.958;2022-07-23T01:34:56;11.07;;;3.17;;
56481;SDS011;42384;45.186;19.958;2022-07-23T01:37:22;6.68;;;2.67;;
56481;SDS011;42384;45.186;19.958;2022-07-23T01:39:48;4.80;;;2.88;;
56481;SDS011;42384;45.186;19.958;2022-07-23T01:42:15;8.63;;;3.50;;
56481;SDS011;42384;45.186;19.958;2022-07-23T01:44:41;5.82;;;3.33;;
56481;SDS011;42384;45.186;19.958;2022-07-23T01:47:07;8.00;;;3.13;;
56481;SDS011;42384;45.186;19.958;2022-07-23T01:49:33;3.83;;;2.58;;
56481;SDS011;42384;45.186;19.958;2022-07-23T01:51:59;6.78;;;3.28;;
56481;SDS011;42384;45.186;19.958;2022-07-23T01:54:26;9.82;;;3.28;;
56481;SDS011;42384;45.186;19.958;2022-07-23T01:56:53;8.43;;;3.00;;
56481;SDS011;42384;45.186;19.958;2022-07-23T01:59:19;10.75;;;3.20;;
56481;SDS011;42384;45.186;19.958;2022-07-23T02:01:45;7.35;;;2.78;;
56481;SDS011;42384;45.186;19.958;2022-07-23T02:04:12;6.15;;;2.88;;
56481;SDS011;42384;45.186;19.958;2022-07-23T02:06:38;4.88;;;2.38;;
56481;SDS011;42384;45.186;19.958;2022-07-23T02:09:04;6.93;;;2.90;;
56481;SDS011;42384;45.186;19.958;2022-07-23T02:11:30;8.70;;;2.88;;
56481;SDS011;42384;45.186;19.958;2022-07-23T02:13:57;6.47;;;2.15;;
56481;SDS011;42384;45.186;19.958;2022-07-23T02:16:23;8.00;;;2.90;;
56481;SDS011;42384;45.186;19.958;2022-07-23T02:18:49;5.38;;;2.65;;
56481;SDS011;42384;45.186;19.958;2022-07-23T02:21:15;4.60;;;2.92;;
56481;SDS011;42384;45.186;19.958;2022-07-23T02:23:42;4.95;;;2.90;;
56481;SDS011;42384;45.186;19.958;2022-07-23T02:26:08;6.85;;;3.20;;
56481;SDS011;42384;45.186;19.958;2022-07-23T02:28:34;6.25;;;3.05;;
56481;SDS011;42384;45.186;19.958;2022-07-23T02:31:00;7.90;;;2.65;;
56481;SDS011;42384;45.186;19.958;2022-07-23T02:35:53;7.72;;;2.42;;
56481;SDS011;42384;45.186;19.958;2022-07-23T02:38:19;4.57;;;2.88;;
56481;SDS011;42384;45.186;19.958;2022-07-23T02:40:45;7.47;;;2.85;;
56481;SDS011;42384;45.186;19.958;2022-07-23T02:43:12;6.15;;;2.85;;
56481;SDS011;42384;45.186;19.958;2022-07-23T02:45:38;4.13;;;2.40;;
56481;SDS011;42384;45.186;19.958;2022-07-23T02:48:04;6.00;;;2.22;;
56481;SDS011;42384;45.186;19.958;2022-07-23T02:50:30;9.27;;;3.15;;
56481;SDS011;42384;45.186;19.958;2022-07-23T02:52:57;7.00;;;2.72;;
56481;SDS011;42384;45.186;19.958;2022-07-23T02:55:23;5.97;;;2.38;;
56481;SDS011;42384;45.186;19.958;2022-07-23T02:57:49;7.00;;;2.80;;
56481;SDS011;42384;45.186;19.958;2022-07-23T03:00:16;7.65;;;2.75;;
56481;SDS011;42384;45.186;19.958;2022-07-23T03:02:42;8.00;;;2.58;;
56481;SDS011;42384;45.186;19.958;2022-07-23T03:05:08;6.90;;;2.63;;
56481;SDS011;42384;45.186;19.958;2022-07-23T03:10:01;5.38;;;2.20;;
56481;SDS011;42384;45.186;19.958;2022-07-23T03:12:27;7.22;;;2.97;;
56481;SDS011;42384;45.186;19.958;2022-07-23T03:14:53;6.47;;;2.38;;
56481;SDS011;42384;45.186;19.958;2022-07-23T03:17:20;7.63;;;2.70;;
56481;SDS011;42384;45.186;19.958;2022-07-23T03:19:46;5.72;;;2.60;;
56481;SDS011;42384;45.186;19.958;2022-07-23T03:22:12;7.75;;;2.25;;
56481;SDS011;42384;45.186;19.958;2022-07-23T03:24:38;4.50;;;2.45;;
56481;SDS011;42384;45.186;19.958;2022-07-23T03:27:20;5.65;;;2.72;;
56481;SDS011;42384;45.186;19.958;2022-07-23T03:29:47;9.57;;;2.40;;
56481;SDS011;42384;45.186;19.958;2022-07-23T03:32:13;5.10;;;2.28;;
56481;SDS011;42384;45.186;19.958;2022-07-23T03:34:39;4.60;;;2.45;;
56481;SDS011;42384;45.186;19.958;2022-07-23T03:37:06;9.48;;;3.03;;
56481;SDS011;42384;45.186;19.958;2022-07-23T03:41:58;6.10;;;2.50;;
56481;SDS011;42384;45.186;19.958;2022-07-23T03:44:24;10.18;;;2.70;;
56481;SDS011;42384;45.186;19.958;2022-07-23T03:46:51;10.77;;;2.85;;
56481;SDS011;42384;45.186;19.958;2022-07-23T03:49:17;6.18;;;2.40;;
56481;SDS011;42384;45.186;19.958;2022-07-23T03:51:44;5.68;;;2.40;;
56481;SDS011;42384;45.186;19.958;2022-07-23T03:54:10;7.07;;;2.47;;
56481;SDS011;42384;45.186;19.958;2022-07-23T03:56:36;10.68;;;2.55;;
56481;SDS011;42384;45.186;19.958;2022-07-23T03:59:03;8.05;;;2.83;;
56481;SDS011;42384;45.186;19.958;2022-07-23T04:01:29;9.25;;;2.58;;
56481;SDS011;42384;45.186;19.958;2022-07-23T04:03:55;9.38;;;2.67;;
56481;SDS011;42384;45.186;19.958;2022-07-23T04:06:21;19.40;;;4.30;;
56481;SDS011;42384;45.186;19.958;2022-07-23T04:08:48;16.73;;;4.03;;
56481;SDS011;42384;45.186;19.958;2022-07-23T04:11:14;15.45;;;3.55;;
56481;SDS011;42384;45.186;19.958;2022-07-23T04:13:40;15.70;;;4.60;;
56481;SDS011;42384;45.186;19.958;2022-07-23T04:16:07;31.08;;;4.47;;
56481;SDS011;42384;45.186;19.958;2022-07-23T04:18:33;29.60;;;4.70;;
56481;SDS011;42384;45.186;19.958;2022-07-23T04:20:59;25.52;;;5.18;;
56481;SDS011;42384;45.186;19.958;2022-07-23T04:23:25;23.90;;;4.45;;
56481;SDS011;42384;45.186;19.958;2022-07-23T04:25:52;25.58;;;5.47;;
56481;SDS011;42384;45.186;19.958;2022-07-23T04:28:18;27.60;;;5.00;;
56481;SDS011;42384;45.186;19.958;2022-07-23T04:30:44;45.45;;;5.35;;
56481;SDS011;42384;45.186;19.958;2022-07-23T04:33:10;27.65;;;5.45;;
56481;SDS011;42384;45.186;19.958;2022-07-23T04:35:37;38.88;;;5.50;;
56481;SDS011;42384;45.186;19.958;2022-07-23T04:38:03;46.28;;;5.90;;
56481;SDS011;42384;45.186;19.958;2022-07-23T04:40:30;17.73;;;4.20;;
56481;SDS011;42384;45.186;19.958;2022-07-23T04:42:56;22.65;;;4.47;;
56481;SDS011;42384;45.186;19.958;2022-07-23T04:45:23;15.13;;;5.00;;
56481;SDS011;42384;45.186;19.958;2022-07-23T04:47:50;20.55;;;4.18;;
56481;SDS011;42384;45.186;19.958;2022-07-23T04:50:16;23.27;;;4.65;;
56481;SDS011;42384;45.186;19.958;2022-07-23T04:52:46;34.50;;;4.90;;
56481;SDS011;42384;45.186;19.958;2022-07-23T04:55:13;37.45;;;5.55;;
56481;SDS011;42384;45.186;19.958;2022-07-23T05:00:06;38.35;;;6.43;;
56481;SDS011;42384;45.186;19.958;2022-07-23T05:02:33;45.33;;;6.00;;
56481;SDS011;42384;45.186;19.958;2022-07-23T05:04:59;33.97;;;5.80;;
56481;SDS011;42384;45.186;19.958;2022-07-23T05:07:25;35.47;;;6.28;;
56481;SDS011;42384;45.186;19.958;2022-07-23T05:12:17;55.63;;;6.45;;
56481;SDS011;42384;45.186;19.958;2022-07-23T05:14:44;52.95;;;6.60;;
56481;SDS011;42384;45.186;19.958;2022-07-23T05:17:10;40.50;;;6.55;;
56481;SDS011;42384;45.186;19.958;2022-07-23T05:22:02;25.27;;;5.07;;
56481;SDS011;42384;45.186;19.958;2022-07-23T05:26:55;37.22;;;5.43;;
56481;SDS011;42384;45.186;19.958;2022-07-23T05:31:47;41.22;;;5.20;;
56481;SDS011;42384;45.186;19.958;2022-07-23T05:34:14;44.45;;;6.18;;
56481;SDS011;42384;45.186;19.958;2022-07-23T05:36:40;30.42;;;5.45;;
56481;SDS011;42384;45.186;19.958;2022-07-23T05:39:06;39.58;;;5.43;;
56481;SDS011;42384;45.186;19.958;2022-07-23T05:41:32;22.27;;;4.88;;
56481;SDS011;42384;45.186;19.958;2022-07-23T05:43:59;16.67;;;4.18;;
56481;SDS011;42384;45.186;19.958;2022-07-23T05:46:25;26.95;;;4.13;;
56481;SDS011;42384;45.186;19.958;2022-07-23T05:48:51;23.48;;;4.43;;
56481;SDS011;42384;45.186;19.958;2022-07-23T05:51:21;19.67;;;4.20;;
56481;SDS011;42384;45.186;19.958;2022-07-23T05:53:48;17.20;;;4.38;;
56481;SDS011;42384;45.186;19.958;2022-07-23T05:56:14;27.33;;;5.30;;
56481;SDS011;42384;45.186;19.958;2022-07-23T05:58:41;37.83;;;6.00;;
56481;SDS011;42384;45.186;19.958;2022-07-23T06:01:07;34.97;;;5.90;;
56481;SDS011;42384;45.186;19.958;2022-07-23T06:03:33;28.88;;;5.15;;
56481;SDS011;42384;45.186;19.958;2022-07-23T06:06:00;28.65;;;4.78;;
56481;SDS011;42384;45.186;19.958;2022-07-23T06:08:26;37.90;;;4.55;;
56481;SDS011;42384;45.186;19.958;2022-07-23T06:10:52;37.03;;;5.97;;
56481;SDS011;42384;45.186;19.958;2022-07-23T06:13:18;24.58;;;5.18;;
56481;SDS011;42384;45.186;19.958;2022-07-23T06:15:45;34.00;;;6.20;;
56481;SDS011;42384;45.186;19.958;2022-07-23T06:18:11;33.20;;;6.82;;
56481;SDS011;42384;45.186;19.958;2022-07-23T06:20:37;35.40;;;7.80;;
56481;SDS011;42384;45.186;19.958;2022-07-23T06:23:09;36.50;;;8.05;;
56481;SDS011;42384;45.186;19.958;2022-07-23T06:25:38;40.17;;;6.93;;
56481;SDS011;42384;45.186;19.958;2022-07-23T06:28:06;48.95;;;7.70;;
56481;SDS011;42384;45.186;19.958;2022-07-23T06:30:33;52.90;;;9.25;;
56481;SDS011;42384;45.186;19.958;2022-07-23T06:33:00;76.50;;;9.05;;
56481;SDS011;42384;45.186;19.958;2022-07-23T06:35:27;45.17;;;7.60;;
56481;SDS011;42384;45.186;19.958;2022-07-23T06:37:54;20.77;;;4.40;;
56481;SDS011;42384;45.186;19.958;2022-07-23T06:40:20;35.60;;;5.13;;
56481;SDS011;42384;45.186;19.958;2022-07-23T06:42:46;30.38;;;4.72;;
56481;SDS011;42384;45.186;19.958;2022-07-23T06:45:13;26.30;;;5.75;;
56481;SDS011;42384;45.186;19.958;2022-07-23T06:47:39;27.63;;;5.40;;
56481;SDS011;42384;45.186;19.958;2022-07-23T06:50:06;30.95;;;5.60;;
56481;SDS011;42384;45.186;19.958;2022-07-23T06:52:33;27.88;;;5.22;;
56481;SDS011;42384;45.186;19.958;2022-07-23T06:54:59;16.85;;;4.25;;
56481;SDS011;42384;45.186;19.958;2022-07-23T06:57:25;62.70;;;7.45;;
56481;SDS011;42384;45.186;19.958;2022-07-23T06:59:52;27.92;;;5.65;;
56481;SDS011;42384;45.186;19.958;2022-07-23T07:02:18;22.50;;;4.95;;
56481;SDS011;42384;45.186;19.958;2022-07-23T07:04:45;35.60;;;5.95;;
56481;SDS011;42384;45.186;19.958;2022-07-23T07:07:11;23.08;;;4.45;;
56481;SDS011;42384;45.186;19.958;2022-07-23T07:09:37;13.85;;;4.20;;
56481;SDS011;42384;45.186;19.958;2022-07-23T07:12:04;14.73;;;4.30;;
56481;SDS011;42384;45.186;19.958;2022-07-23T07:14:30;29.08;;;6.05;;
56481;SDS011;42384;45.186;19.958;2022-07-23T07:16:56;24.25;;;6.38;;
56481;SDS011;42384;45.186;19.958;2022-07-23T07:19:23;28.20;;;5.82;;
56481;SDS011;42384;45.186;19.958;2022-07-23T07:21:49;24.65;;;4.85;;
56481;SDS011;42384;45.186;19.958;2022-07-23T07:24:15;22.25;;;4.72;;
56481;SDS011;42384;45.186;19.958;2022-07-23T07:26:42;17.25;;;4.80;;
56481;SDS011;42384;45.186;19.958;2022-07-23T07:29:08;14.32;;;4.53;;
56481;SDS011;42384;45.186;19.958;2022-07-23T07:31:34;17.33;;;4.93;;
56481;SDS011;42384;45.186;19.958;2022-07-23T07:34:00;26.20;;;6.28;;
56481;SDS011;42384;45.186;19.958;2022-07-23T07:36:26;35.78;;;6.65;;
56481;SDS011;42384;45.186;19.958;2022-07-23T07:38:53;9.30;;;4.15;;
56481;SDS011;42384;45.186;19.958;2022-07-23T07:41:19;39.30;;;6.13;;
56481;SDS011;42384;45.186;19.958;2022-07-23T07:43:49;24.38;;;5.00;;
56481;SDS011;42384;45.186;19.958;2022-07-23T07:46:16;14.45;;;4.40;;
56481;SDS011;42384;45.186;19.958;2022-07-23T07:48:42;18.17;;;4.30;;
56481;SDS011;42384;45.186;19.958;2022-07-23T07:51:08;12.52;;;4.13;;
56481;SDS011;42384;45.186;19.958;2022-07-23T07:53:35;15.13;;;4.43;;
56481;SDS011;42384;45.186;19.958;2022-07-23T07:56:01;11.50;;;4.20;;
56481;SDS011;42384;45.186;19.958;2022-07-23T07:58:27;9.02;;;3.78;;
56481;SDS011;42384;45.186;19.958;2022-07-23T08:00:54;18.75;;;4.68;;
56481;SDS011;42384;45.186;19.958;2022-07-23T08:03:20;11.52;;;3.90;;
56481;SDS011;42384;45.186;19.958;2022-07-23T08:05:46;7.78;;;3.20;;
56481;SDS011;42384;45.186;19.958;2022-07-23T08:08:12;13.63;;;4.40;;
56481;SDS011;42384;45.186;19.958;2022-07-23T08:10:41;20.38;;;4.43;;
56481;SDS011;42384;45.186;19.958;2022-07-23T08:13:11;18.83;;;4.35;;
56481;SDS011;42384;45.186;19.958;2022-07-23T08:15:37;17.92;;;4.45;;
56481;SDS011;42384;45.186;19.958;2022-07-23T08:18:04;13.48;;;3.90;;
56481;SDS011;42384;45.186;19.958;2022-07-23T08:20:30;22.45;;;4.57;;
56481;SDS011;42384;45.186;19.958;2022-07-23T08:22:57;11.00;;;3.83;;
56481;SDS011;42384;45.186;19.958;2022-07-23T08:25:30;41.38;;;6.25;;
56481;SDS011;42384;45.186;19.958;2022-07-23T08:27:58;19.13;;;4.10;;
56481;SDS011;42384;45.186;19.958;2022-07-23T08:30:24;25.23;;;5.25;;
56481;SDS011;42384;45.186;19.958;2022-07-23T08:32:52;32.50;;;5.30;;
56481;SDS011;42384;45.186;19.958;2022-07-23T08:35:22;32.63;;;4.68;;
56481;SDS011;42384;45.186;19.958;2022-07-23T08:37:48;16.00;;;4.03;;
56481;SDS011;42384;45.186;19.958;2022-07-23T08:40:14;11.07;;;3.50;;
56481;SDS011;42384;45.186;19.958;2022-07-23T08:42:40;12.00;;;3.80;;
56481;SDS011;42384;45.186;19.958;2022-07-23T08:45:07;13.68;;;3.78;;
56481;SDS011;42384;45.186;19.958;2022-07-23T08:47:34;17.38;;;3.80;;
56481;SDS011;42384;45.186;19.958;2022-07-23T08:50:01;10.70;;;3.90;;
56481;SDS011;42384;45.186;19.958;2022-07-23T08:52:27;12.15;;;4.68;;
56481;SDS011;42384;45.186;19.958;2022-07-23T08:54:54;11.10;;;3.42;;
56481;SDS011;42384;45.186;19.958;2022-07-23T08:57:20;9.48;;;3.38;;
56481;SDS011;42384;45.186;19.958;2022-07-23T08:59:47;21.25;;;10.23;;
56481;SDS011;42384;45.186;19.958;2022-07-23T09:02:13;10.93;;;3.70;;
56481;SDS011;42384;45.186;19.958;2022-07-23T09:04:39;9.48;;;3.45;;
56481;SDS011;42384;45.186;19.958;2022-07-23T09:07:05;36.92;;;5.80;;
56481;SDS011;42384;45.186;19.958;2022-07-23T09:09:31;37.25;;;5.13;;
56481;SDS011;42384;45.186;19.958;2022-07-23T09:12:02;15.18;;;3.97;;
56481;SDS011;42384;45.186;19.958;2022-07-23T09:17:14;5.68;;;3.58;;
56481;SDS011;42384;45.186;19.958;2022-07-23T09:19:41;12.80;;;3.78;;
56481;SDS011;42384;45.186;19.958;2022-07-23T09:22:20;13.15;;;3.58;;
56481;SDS011;42384;45.186;19.958;2022-07-23T09:30:16;12.88;;;3.40;;
56481;SDS011;42384;45.186;19.958;2022-07-23T09:32:42;7.07;;;3.15;;
56481;SDS011;42384;45.186;19.958;2022-07-23T09:35:08;8.68;;;3.15;;
56481;SDS011;42384;45.186;19.958;2022-07-23T09:37:35;18.98;;;4.05;;
56481;SDS011;42384;45.186;19.958;2022-07-23T09:40:07;15.32;;;5.72;;
56481;SDS011;42384;45.186;19.958;2022-07-23T09:42:34;12.63;;;4.07;;
56481;SDS011;42384;45.186;19.958;2022-07-23T09:45:01;20.17;;;4.32;;
56481;SDS011;42384;45.186;19.958;2022-07-23T09:47:28;9.27;;;3.90;;
56481;SDS011;42384;45.186;19.958;2022-07-23T09:52:33;10.75;;;3.92;;
56481;SDS011;42384;45.186;19.958;2022-07-23T09:55:04;9.95;;;3.55;;
56481;SDS011;42384;45.186;19.958;2022-07-23T09:57:31;13.00;;;3.72;;
56481;SDS011;42384;45.186;19.958;2022-07-23T09:59:58;12.10;;;3.25;;
56481;SDS011;42384;45.186;19.958;2022-07-23T10:02:25;13.88;;;4.05;;
56481;SDS011;42384;45.186;19.958;2022-07-23T10:04:53;9.73;;;3.17;;
56481;SDS011;42384;45.186;19.958;2022-07-23T10:07:23;10.00;;;3.65;;
56481;SDS011;42384;45.186;19.958;2022-07-23T10:09:51;10.15;;;3.20;;
56481;SDS011;42384;45.186;19.958;2022-07-23T10:12:18;7.38;;;3.65;;
56481;SDS011;42384;45.186;19.958;2022-07-23T10:15:00;9.75;;;3.75;;
56481;SDS011;42384;45.186;19.958;2022-07-23T10:17:29;10.50;;;3.75;;
56481;SDS011;42384;45.186;19.958;2022-07-23T10:19:56;8.25;;;3.47;;
56481;SDS011;42384;45.186;19.958;2022-07-23T10:22:23;29.00;;;5.85;;
56481;SDS011;42384;45.186;19.958;2022-07-23T10:25:03;24.38;;;4.10;;
56481;SDS011;42384;45.186;19.958;2022-07-23T10:30:02;12.50;;;3.70;;
56481;SDS011;42384;45.186;19.958;2022-07-23T10:37:41;9.00;;;4.03;;
56481;SDS011;42384;45.186;19.958;2022-07-23T10:40:12;9.05;;;3.85;;
56481;SDS011;42384;45.186;19.958;2022-07-23T10:42:39;6.80;;;3.88;;
56481;SDS011;42384;45.186;19.958;2022-07-23T10:45:21;8.40;;;3.58;;
56481;SDS011;42384;45.186;19.958;2022-07-23T10:47:48;10.02;;;3.40;;
56481;SDS011;42384;45.186;19.958;2022-07-23T10:50:23;10.73;;;3.70;;
56481;SDS011;42384;45.186;19.958;2022-07-23T10:58:01;10.27;;;4.43;;
56481;SDS011;42384;45.186;19.958;2022-07-23T11:00:28;12.10;;;4.00;;
56481;SDS011;42384;45.186;19.958;2022-07-23T11:02:59;8.80;;;3.83;;
56481;SDS011;42384;45.186;19.958;2022-07-23T11:05:41;13.05;;;4.03;;
56481;SDS011;42384;45.186;19.958;2022-07-23T11:11:12;9.80;;;3.90;;
56481;SDS011;42384;45.186;19.958;2022-07-23T11:13:35;8.77;;;4.00;;
56481;SDS011;42384;45.186;19.958;2022-07-23T11:23:59;7.85;;;3.95;;
56481;SDS011;42384;45.186;19.958;2022-07-23T11:31:57;7.75;;;3.95;;
56481;SDS011;42384;45.186;19.958;2022-07-23T11:34:27;10.95;;;4.03;;
56481;SDS011;42384;45.186;19.958;2022-07-23T11:36:54;8.82;;;4.18;;
56481;SDS011;42384;45.186;19.958;2022-07-23T11:39:20;8.85;;;4.40;;
56481;SDS011;42384;45.186;19.958;2022-07-23T11:41:46;9.02;;;4.28;;
56481;SDS011;42384;45.186;19.958;2022-07-23T11:44:35;11.43;;;4.38;;
56481;SDS011;42384;45.186;19.958;2022-07-23T11:47:10;11.70;;;3.97;;
56481;SDS011;42384;45.186;19.958;2022-07-23T11:49:43;12.25;;;4.15;;
56481;SDS011;42384;45.186;19.958;2022-07-23T11:52:17;8.65;;;4.10;;
56481;SDS011;42384;45.186;19.958;2022-07-23T11:54:53;8.07;;;3.78;;
56481;SDS011;42384;45.186;19.958;2022-07-23T11:57:21;9.10;;;4.13;;
56481;SDS011;42384;45.186;19.958;2022-07-23T11:59:51;10.23;;;4.22;;
56481;SDS011;42384;45.186;19.958;2022-07-23T12:02:19;10.75;;;4.07;;
56481;SDS011;42384;45.186;19.958;2022-07-23T12:04:49;10.45;;;5.45;;
56481;SDS011;42384;45.186;19.958;2022-07-23T12:07:31;12.18;;;5.35;;
56481;SDS011;42384;45.186;19.958;2022-07-23T12:09:58;10.15;;;4.38;;
56481;SDS011;42384;45.186;19.958;2022-07-23T12:12:25;13.25;;;4.55;;
56481;SDS011;42384;45.186;19.958;2022-07-23T12:14:52;12.52;;;4.63;;
56481;SDS011;42384;45.186;19.958;2022-07-23T12:17:19;13.35;;;4.80;;
56481;SDS011;42384;45.186;19.958;2022-07-23T12:19:46;8.98;;;4.25;;
56481;SDS011;42384;45.186;19.958;2022-07-23T12:22:12;13.70;;;5.70;;
56481;SDS011;42384;45.186;19.958;2022-07-23T12:24:54;10.98;;;5.78;;
56481;SDS011;42384;45.186;19.958;2022-07-23T12:27:21;10.60;;;4.07;;
56481;SDS011;42384;45.186;19.958;2022-07-23T12:29:48;12.43;;;5.15;;
56481;SDS011;42384;45.186;19.958;2022-07-23T12:34:48;9.75;;;4.60;;
56481;SDS011;42384;45.186;19.958;2022-07-23T12:37:27;10.82;;;3.78;;
56481;SDS011;42384;45.186;19.958;2022-07-23T12:39:54;12.10;;;3.88;;
56481;SDS011;42384;45.186;19.958;2022-07-23T12:42:20;14.23;;;4.35;;
56481;SDS011;42384;45.186;19.958;2022-07-23T12:47:50;10.13;;;3.72;;
56481;SDS011;42384;45.186;19.958;2022-07-23T12:53:14;12.75;;;4.55;;
56481;SDS011;42384;45.186;19.958;2022-07-23T12:55:41;8.27;;;4.10;;
56481;SDS011;42384;45.186;19.958;2022-07-23T12:58:13;11.50;;;4.43;;
56481;SDS011;42384;45.186;19.958;2022-07-23T13:00:53;9.15;;;4.72;;
56481;SDS011;42384;45.186;19.958;2022-07-23T13:03:21;10.98;;;4.18;;
56481;SDS011;42384;45.186;19.958;2022-07-23T13:05:47;8.13;;;4.15;;
56481;SDS011;42384;45.186;19.958;2022-07-23T13:08:13;6.90;;;4.28;;
56481;SDS011;42384;45.186;19.958;2022-07-23T13:10:40;9.52;;;4.53;;
56481;SDS011;42384;45.186;19.958;2022-07-23T13:13:12;10.27;;;4.50;;
56481;SDS011;42384;45.186;19.958;2022-07-23T13:15:38;12.88;;;5.00;;
56481;SDS011;42384;45.186;19.958;2022-07-23T13:18:04;11.90;;;4.40;;
56481;SDS011;42384;45.186;19.958;2022-07-23T13:20:31;13.48;;;4.80;;
56481;SDS011;42384;45.186;19.958;2022-07-23T13:22:59;8.52;;;4.70;;
56481;SDS011;42384;45.186;19.958;2022-07-23T13:25:25;8.00;;;4.70;;
56481;SDS011;42384;45.186;19.958;2022-07-23T13:27:52;14.80;;;4.50;;
56481;SDS011;42384;45.186;19.958;2022-07-23T13:30:18;8.43;;;3.97;;
56481;SDS011;42384;45.186;19.958;2022-07-23T13:32:44;13.95;;;4.43;;
56481;SDS011;42384;45.186;19.958;2022-07-23T13:35:10;10.93;;;4.88;;
56481;SDS011;42384;45.186;19.958;2022-07-23T13:37:37;10.93;;;5.13;;
56481;SDS011;42384;45.186;19.958;2022-07-23T13:40:03;9.77;;;4.82;;
56481;SDS011;42384;45.186;19.958;2022-07-23T13:42:29;11.55;;;5.63;;
56481;SDS011;42384;45.186;19.958;2022-07-23T13:44:55;7.55;;;4.22;;
56481;SDS011;42384;45.186;19.958;2022-07-23T13:47:22;8.57;;;5.00;;
56481;SDS011;42384;45.186;19.958;2022-07-23T13:49:48;9.85;;;4.75;;
56481;SDS011;42384;45.186;19.958;2022-07-23T13:52:14;9.73;;;4.50;;
56481;SDS011;42384;45.186;19.958;2022-07-23T13:54:40;10.13;;;4.82;;
56481;SDS011;42384;45.186;19.958;2022-07-23T13:57:07;12.95;;;6.22;;
56481;SDS011;42384;45.186;19.958;2022-07-23T13:59:34;18.40;;;4.72;;
56481;SDS011;42384;45.186;19.958;2022-07-23T14:02:03;9.77;;;4.40;;
56481;SDS011;42384;45.186;19.958;2022-07-23T14:04:29;12.38;;;4.93;;
56481;SDS011;42384;45.186;19.958;2022-07-23T14:06:55;10.57;;;4.80;;
56481;SDS011;42384;45.186;19.958;2022-07-23T14:09:22;11.15;;;5.25;;
56481;SDS011;42384;45.186;19.958;2022-07-23T14:11:48;8.32;;;4.80;;
56481;SDS011;42384;45.186;19.958;2022-07-23T14:14:16;12.98;;;4.65;;
56481;SDS011;42384;45.186;19.958;2022-07-23T14:16:42;7.80;;;4.60;;
56481;SDS011;42384;45.186;19.958;2022-07-23T14:19:08;8.80;;;5.00;;
56481;SDS011;42384;45.186;19.958;2022-07-23T14:21:35;9.57;;;4.82;;
56481;SDS011;42384;45.186;19.958;2022-07-23T14:24:01;10.32;;;6.10;;
56481;SDS011;42384;45.186;19.958;2022-07-23T14:26:27;10.27;;;4.63;;
56481;SDS011;42384;45.186;19.958;2022-07-23T14:28:54;13.40;;;5.40;;
56481;SDS011;42384;45.186;19.958;2022-07-23T14:31:20;12.57;;;8.02;;
56481;SDS011;42384;45.186;19.958;2022-07-23T14:33:46;7.60;;;4.80;;
56481;SDS011;42384;45.186;19.958;2022-07-23T14:36:12;14.65;;;5.25;;
56481;SDS011;42384;45.186;19.958;2022-07-23T14:38:38;12.70;;;4.20;;
56481;SDS011;42384;45.186;19.958;2022-07-23T14:41:05;9.70;;;4.88;;
56481;SDS011;42384;45.186;19.958;2022-07-23T14:43:33;8.55;;;4.80;;
56481;SDS011;42384;45.186;19.958;2022-07-23T14:45:59;11.85;;;6.47;;
56481;SDS011;42384;45.186;19.958;2022-07-23T14:48:25;10.52;;;6.85;;
56481;SDS011;42384;45.186;19.958;2022-07-23T14:50:51;8.38;;;5.05;;
56481;SDS011;42384;45.186;19.958;2022-07-23T14:53:17;11.48;;;4.70;;
56481;SDS011;42384;45.186;19.958;2022-07-23T14:55:44;12.27;;;5.50;;
56481;SDS011;42384;45.186;19.958;2022-07-23T14:58:10;9.00;;;7.30;;
56481;SDS011;42384;45.186;19.958;2022-07-23T15:00:36;7.20;;;5.10;;
56481;SDS011;42384;45.186;19.958;2022-07-23T15:03:02;10.57;;;5.85;;
56481;SDS011;42384;45.186;19.958;2022-07-23T15:05:28;13.43;;;6.38;;
56481;SDS011;42384;45.186;19.958;2022-07-23T15:07:55;10.18;;;4.90;;
56481;SDS011;42384;45.186;19.958;2022-07-23T15:10:22;7.35;;;4.95;;
56481;SDS011;42384;45.186;19.958;2022-07-23T15:12:48;6.80;;;4.60;;
56481;SDS011;42384;45.186;19.958;2022-07-23T15:15:14;7.40;;;5.18;;
56481;SDS011;42384;45.186;19.958;2022-07-23T15:17:41;7.57;;;4.93;;
56481;SDS011;42384;45.186;19.958;2022-07-23T15:20:07;12.15;;;5.07;;
56481;SDS011;42384;45.186;19.958;2022-07-23T15:22:33;8.18;;;4.43;;
56481;SDS011;42384;45.186;19.958;2022-07-23T15:25:00;10.90;;;4.88;;
56481;SDS011;42384;45.186;19.958;2022-07-23T15:27:26;10.45;;;4.65;;
56481;SDS011;42384;45.186;19.958;2022-07-23T15:29:53;5.65;;;4.20;;
56481;SDS011;42384;45.186;19.958;2022-07-23T15:32:19;10.55;;;4.85;;
56481;SDS011;42384;45.186;19.958;2022-07-23T15:34:45;9.00;;;4.60;;
56481;SDS011;42384;45.186;19.958;2022-07-23T15:37:11;8.82;;;5.05;;
56481;SDS011;42384;45.186;19.958;2022-07-23T15:39:38;7.78;;;4.70;;
56481;SDS011;42384;45.186;19.958;2022-07-23T15:42:04;10.65;;;5.47;;
56481;SDS011;42384;45.186;19.958;2022-07-23T15:44:30;7.38;;;5.22;;
56481;SDS011;42384;45.186;19.958;2022-07-23T15:46:57;16.60;;;7.20;;
56481;SDS011;42384;45.186;19.958;2022-07-23T15:49:23;12.23;;;4.65;;